sensor_id;sensor_type;location;lat;lon;timestamp;P1;durP1;ratioP1;P2;durP2;ratioP2
32533;SDS011;18973;48.580;8.912;2022-07-22T00:00:04;1.98;;;1.25;;
32533;SDS011;18973;48.580;8.912;2022-07-22T00:02:32;1.85;;;1.08;;
32533;SDS011;18973;48.580;8.912;2022-07-22T00:04:58;1.95;;;1.50;;
32533;SDS011;18973;48.580;8.912;2022-07-22T00:07:23;1.15;;;0.98;;
32533;SDS011;18973;48.580;8.912;2022-07-22T00:09:49;1.83;;;1.52;;
32533;SDS011;18973;48.580;8.912;2022-07-22T00:12:15;1.65;;;1.20;;
32533;SDS011;18973;48.580;8.912;2022-07-22T00:14:43;1.95;;;1.30;;
32533;SDS011;18973;48.580;8.912;2022-07-22T00:17:09;2.40;;;1.60;;
32533;SDS011;18973;48.580;8.912;2022-07-22T00:19:35;1.67;;;1.33;;
32533;SDS011;18973;48.580;8.912;2022-07-22T00:22:02;1.52;;;1.17;;
32533;SDS011;18973;48.580;8.912;2022-07-22T00:24:28;2.42;;;1.58;;
32533;SDS011;18973;48.580;8.912;2022-07-22T00:26:53;1.30;;;1.20;;
32533;SDS011;18973;48.580;8.912;2022-07-22T00:29:22;2.25;;;1.17;;
32533;SDS011;18973;48.580;8.912;2022-07-22T00:31:48;1.38;;;1.15;;
32533;SDS011;18973;48.580;8.912;2022-07-22T00:34:13;1.40;;;1.27;;
32533;SDS011;18973;48.580;8.912;2022-07-22T00:36:39;2.45;;;1.50;;
32533;SDS011;18973;48.580;8.912;2022-07-22T00:39:05;1.27;;;1.17;;
32533;SDS011;18973;48.580;8.912;2022-07-22T00:41:31;2.63;;;1.48;;
32533;SDS011;18973;48.580;8.912;2022-07-22T00:44:01;2.20;;;1.75;;
32533;SDS011;18973;48.580;8.912;2022-07-22T00:46:29;1.17;;;1.08;;
32533;SDS011;18973;48.580;8.912;2022-07-22T00:48:55;2.72;;;1.50;;
32533;SDS011;18973;48.580;8.912;2022-07-22T00:51:22;5.72;;;1.67;;
32533;SDS011;18973;48.580;8.912;2022-07-22T00:53:49;2.17;;;1.88;;
32533;SDS011;18973;48.580;8.912;2022-07-22T00:56:16;3.55;;;1.67;;
32533;SDS011;18973;48.580;8.912;2022-07-22T00:58:42;4.93;;;2.45;;
32533;SDS011;18973;48.580;8.912;2022-07-22T01:01:09;1.45;;;1.35;;
32533;SDS011;18973;48.580;8.912;2022-07-22T01:03:35;3.30;;;1.60;;
32533;SDS011;18973;48.580;8.912;2022-07-22T01:06:01;1.65;;;1.30;;
32533;SDS011;18973;48.580;8.912;2022-07-22T01:08:27;1.50;;;1.10;;
32533;SDS011;18973;48.580;8.912;2022-07-22T01:10:52;1.98;;;1.50;;
32533;SDS011;18973;48.580;8.912;2022-07-22T01:13:18;2.20;;;1.60;;
32533;SDS011;18973;48.580;8.912;2022-07-22T01:15:44;2.00;;;1.70;;
32533;SDS011;18973;48.580;8.912;2022-07-22T01:18:10;1.08;;;0.90;;
32533;SDS011;18973;48.580;8.912;2022-07-22T01:20:35;3.72;;;1.70;;
32533;SDS011;18973;48.580;8.912;2022-07-22T01:23:01;1.60;;;1.02;;
32533;SDS011;18973;48.580;8.912;2022-07-22T01:25:27;1.83;;;1.15;;
32533;SDS011;18973;48.580;8.912;2022-07-22T01:27:53;1.90;;;1.30;;
32533;SDS011;18973;48.580;8.912;2022-07-22T01:30:19;1.92;;;1.23;;
32533;SDS011;18973;48.580;8.912;2022-07-22T01:32:45;2.30;;;1.63;;
32533;SDS011;18973;48.580;8.912;2022-07-22T01:35:10;1.55;;;0.90;;
32533;SDS011;18973;48.580;8.912;2022-07-22T01:37:36;1.38;;;1.25;;
32533;SDS011;18973;48.580;8.912;2022-07-22T01:40:02;3.15;;;1.58;;
32533;SDS011;18973;48.580;8.912;2022-07-22T01:42:28;1.95;;;1.52;;
32533;SDS011;18973;48.580;8.912;2022-07-22T01:44:54;2.60;;;1.40;;
32533;SDS011;18973;48.580;8.912;2022-07-22T01:47:20;1.92;;;1.63;;
32533;SDS011;18973;48.580;8.912;2022-07-22T01:49:46;3.70;;;1.75;;
32533;SDS011;18973;48.580;8.912;2022-07-22T01:52:12;3.75;;;1.75;;
32533;SDS011;18973;48.580;8.912;2022-07-22T01:54:37;3.15;;;1.67;;
32533;SDS011;18973;48.580;8.912;2022-07-22T01:57:03;2.03;;;1.83;;
32533;SDS011;18973;48.580;8.912;2022-07-22T01:59:29;2.55;;;1.60;;
32533;SDS011;18973;48.580;8.912;2022-07-22T02:01:55;2.60;;;1.65;;
32533;SDS011;18973;48.580;8.912;2022-07-22T02:04:20;2.17;;;1.58;;
32533;SDS011;18973;48.580;8.912;2022-07-22T02:06:46;2.80;;;1.75;;
32533;SDS011;18973;48.580;8.912;2022-07-22T02:09:12;1.30;;;1.20;;
32533;SDS011;18973;48.580;8.912;2022-07-22T02:11:38;2.22;;;1.48;;
32533;SDS011;18973;48.580;8.912;2022-07-22T02:14:04;2.45;;;1.55;;
32533;SDS011;18973;48.580;8.912;2022-07-22T02:16:30;3.28;;;2.00;;
32533;SDS011;18973;48.580;8.912;2022-07-22T02:18:56;3.05;;;1.88;;
32533;SDS011;18973;48.580;8.912;2022-07-22T02:21:22;1.98;;;1.70;;
32533;SDS011;18973;48.580;8.912;2022-07-22T02:23:48;2.00;;;1.60;;
32533;SDS011;18973;48.580;8.912;2022-07-22T02:26:13;2.00;;;1.50;;
32533;SDS011;18973;48.580;8.912;2022-07-22T02:28:39;2.38;;;1.52;;
32533;SDS011;18973;48.580;8.912;2022-07-22T02:31:05;3.60;;;1.85;;
32533;SDS011;18973;48.580;8.912;2022-07-22T02:33:31;3.30;;;1.40;;
32533;SDS011;18973;48.580;8.912;2022-07-22T02:35:56;2.67;;;1.75;;
32533;SDS011;18973;48.580;8.912;2022-07-22T02:38:22;2.50;;;1.60;;
32533;SDS011;18973;48.580;8.912;2022-07-22T02:40:48;2.05;;;1.27;;
32533;SDS011;18973;48.580;8.912;2022-07-22T02:43:13;3.20;;;2.17;;
32533;SDS011;18973;48.580;8.912;2022-07-22T02:45:39;2.08;;;1.40;;
32533;SDS011;18973;48.580;8.912;2022-07-22T02:48:05;2.50;;;1.90;;
32533;SDS011;18973;48.580;8.912;2022-07-22T02:50:31;3.60;;;1.67;;
32533;SDS011;18973;48.580;8.912;2022-07-22T02:53:01;1.77;;;1.40;;
32533;SDS011;18973;48.580;8.912;2022-07-22T02:55:26;2.50;;;1.52;;
32533;SDS011;18973;48.580;8.912;2022-07-22T02:57:52;2.28;;;1.63;;
32533;SDS011;18973;48.580;8.912;2022-07-22T03:00:18;2.47;;;1.80;;
32533;SDS011;18973;48.580;8.912;2022-07-22T03:02:43;2.47;;;1.52;;
32533;SDS011;18973;48.580;8.912;2022-07-22T03:05:09;2.13;;;1.50;;
32533;SDS011;18973;48.580;8.912;2022-07-22T03:07:35;2.42;;;1.80;;
32533;SDS011;18973;48.580;8.912;2022-07-22T03:10:02;2.05;;;1.80;;
32533;SDS011;18973;48.580;8.912;2022-07-22T03:12:28;2.08;;;1.60;;
32533;SDS011;18973;48.580;8.912;2022-07-22T03:14:54;1.67;;;1.38;;
32533;SDS011;18973;48.580;8.912;2022-07-22T03:17:20;2.40;;;1.63;;
32533;SDS011;18973;48.580;8.912;2022-07-22T03:19:46;3.30;;;1.98;;
32533;SDS011;18973;48.580;8.912;2022-07-22T03:22:11;2.28;;;1.45;;
32533;SDS011;18973;48.580;8.912;2022-07-22T03:24:37;2.67;;;1.65;;
32533;SDS011;18973;48.580;8.912;2022-07-22T03:27:03;3.45;;;1.75;;
32533;SDS011;18973;48.580;8.912;2022-07-22T03:29:30;2.13;;;1.80;;
32533;SDS011;18973;48.580;8.912;2022-07-22T03:31:56;2.78;;;1.80;;
32533;SDS011;18973;48.580;8.912;2022-07-22T03:34:21;4.40;;;1.92;;
32533;SDS011;18973;48.580;8.912;2022-07-22T03:36:47;2.38;;;1.88;;
32533;SDS011;18973;48.580;8.912;2022-07-22T03:39:13;2.30;;;1.55;;
32533;SDS011;18973;48.580;8.912;2022-07-22T03:41:38;2.88;;;2.05;;
32533;SDS011;18973;48.580;8.912;2022-07-22T03:44:04;2.08;;;1.88;;
32533;SDS011;18973;48.580;8.912;2022-07-22T03:46:30;2.15;;;1.95;;
32533;SDS011;18973;48.580;8.912;2022-07-22T03:48:55;2.22;;;1.50;;
32533;SDS011;18973;48.580;8.912;2022-07-22T03:51:21;1.98;;;1.83;;
32533;SDS011;18973;48.580;8.912;2022-07-22T03:53:47;2.53;;;1.92;;
32533;SDS011;18973;48.580;8.912;2022-07-22T03:56:12;1.90;;;1.67;;
32533;SDS011;18973;48.580;8.912;2022-07-22T03:58:38;2.15;;;1.45;;
32533;SDS011;18973;48.580;8.912;2022-07-22T04:01:04;1.95;;;1.75;;
32533;SDS011;18973;48.580;8.912;2022-07-22T04:03:30;2.53;;;2.33;;
32533;SDS011;18973;48.580;8.912;2022-07-22T04:05:55;2.25;;;1.92;;
32533;SDS011;18973;48.580;8.912;2022-07-22T04:08:21;2.70;;;1.77;;
32533;SDS011;18973;48.580;8.912;2022-07-22T04:10:47;3.15;;;2.05;;
32533;SDS011;18973;48.580;8.912;2022-07-22T04:13:13;2.65;;;1.67;;
32533;SDS011;18973;48.580;8.912;2022-07-22T04:15:38;4.25;;;2.45;;
32533;SDS011;18973;48.580;8.912;2022-07-22T04:18:04;2.78;;;1.80;;
32533;SDS011;18973;48.580;8.912;2022-07-22T04:20:30;2.22;;;1.58;;
32533;SDS011;18973;48.580;8.912;2022-07-22T04:22:56;2.00;;;1.73;;
32533;SDS011;18973;48.580;8.912;2022-07-22T04:25:21;1.67;;;1.48;;
32533;SDS011;18973;48.580;8.912;2022-07-22T04:27:47;3.75;;;1.75;;
32533;SDS011;18973;48.580;8.912;2022-07-22T04:30:13;3.15;;;1.92;;
32533;SDS011;18973;48.580;8.912;2022-07-22T04:32:39;2.70;;;1.83;;
32533;SDS011;18973;48.580;8.912;2022-07-22T04:35:04;3.15;;;1.80;;
32533;SDS011;18973;48.580;8.912;2022-07-22T04:37:30;2.70;;;1.73;;
32533;SDS011;18973;48.580;8.912;2022-07-22T04:39:56;2.60;;;1.83;;
32533;SDS011;18973;48.580;8.912;2022-07-22T04:42:22;2.70;;;2.17;;
32533;SDS011;18973;48.580;8.912;2022-07-22T04:44:47;2.10;;;1.80;;
32533;SDS011;18973;48.580;8.912;2022-07-22T04:47:13;2.67;;;1.98;;
32533;SDS011;18973;48.580;8.912;2022-07-22T04:49:39;2.83;;;1.60;;
32533;SDS011;18973;48.580;8.912;2022-07-22T04:52:05;3.13;;;2.65;;
32533;SDS011;18973;48.580;8.912;2022-07-22T04:54:30;3.75;;;1.67;;
32533;SDS011;18973;48.580;8.912;2022-07-22T04:56:56;2.50;;;1.83;;
32533;SDS011;18973;48.580;8.912;2022-07-22T04:59:22;3.22;;;2.22;;
32533;SDS011;18973;48.580;8.912;2022-07-22T05:01:48;3.45;;;1.83;;
32533;SDS011;18973;48.580;8.912;2022-07-22T05:04:13;3.03;;;2.33;;
32533;SDS011;18973;48.580;8.912;2022-07-22T05:06:40;2.28;;;1.73;;
32533;SDS011;18973;48.580;8.912;2022-07-22T05:09:06;3.13;;;2.47;;
32533;SDS011;18973;48.580;8.912;2022-07-22T05:11:32;4.35;;;2.53;;
32533;SDS011;18973;48.580;8.912;2022-07-22T05:13:58;4.78;;;3.13;;
32533;SDS011;18973;48.580;8.912;2022-07-22T05:16:23;4.00;;;2.50;;
32533;SDS011;18973;48.580;8.912;2022-07-22T05:18:49;5.30;;;2.33;;
32533;SDS011;18973;48.580;8.912;2022-07-22T05:21:15;4.10;;;2.15;;
32533;SDS011;18973;48.580;8.912;2022-07-22T05:23:41;4.22;;;2.63;;
32533;SDS011;18973;48.580;8.912;2022-07-22T05:26:07;2.47;;;1.85;;
32533;SDS011;18973;48.580;8.912;2022-07-22T05:28:34;3.25;;;2.10;;
32533;SDS011;18973;48.580;8.912;2022-07-22T05:31:00;3.28;;;2.20;;
32533;SDS011;18973;48.580;8.912;2022-07-22T05:33:25;3.90;;;2.33;;
32533;SDS011;18973;48.580;8.912;2022-07-22T05:35:51;3.28;;;2.50;;
32533;SDS011;18973;48.580;8.912;2022-07-22T05:38:17;3.83;;;2.40;;
32533;SDS011;18973;48.580;8.912;2022-07-22T05:40:43;3.05;;;1.85;;
32533;SDS011;18973;48.580;8.912;2022-07-22T05:43:09;3.78;;;2.65;;
32533;SDS011;18973;48.580;8.912;2022-07-22T05:45:34;2.83;;;2.10;;
32533;SDS011;18973;48.580;8.912;2022-07-22T05:48:00;3.88;;;2.85;;
32533;SDS011;18973;48.580;8.912;2022-07-22T05:50:26;3.15;;;2.58;;
32533;SDS011;18973;48.580;8.912;2022-07-22T05:52:52;3.25;;;2.03;;
32533;SDS011;18973;48.580;8.912;2022-07-22T05:55:18;2.47;;;1.92;;
32533;SDS011;18973;48.580;8.912;2022-07-22T05:57:44;3.00;;;2.30;;
32533;SDS011;18973;48.580;8.912;2022-07-22T06:00:09;3.50;;;2.55;;
32533;SDS011;18973;48.580;8.912;2022-07-22T06:02:35;3.38;;;2.13;;
32533;SDS011;18973;48.580;8.912;2022-07-22T06:05:01;3.55;;;2.78;;
32533;SDS011;18973;48.580;8.912;2022-07-22T06:07:27;3.15;;;2.25;;
32533;SDS011;18973;48.580;8.912;2022-07-22T06:09:53;3.03;;;2.10;;
32533;SDS011;18973;48.580;8.912;2022-07-22T06:12:19;4.30;;;2.20;;
32533;SDS011;18973;48.580;8.912;2022-07-22T06:14:45;2.67;;;2.22;;
32533;SDS011;18973;48.580;8.912;2022-07-22T06:17:11;4.72;;;2.42;;
32533;SDS011;18973;48.580;8.912;2022-07-22T06:19:38;4.20;;;2.53;;
32533;SDS011;18973;48.580;8.912;2022-07-22T06:22:04;2.75;;;2.10;;
32533;SDS011;18973;48.580;8.912;2022-07-22T06:24:30;2.42;;;2.05;;
32533;SDS011;18973;48.580;8.912;2022-07-22T06:26:56;3.75;;;2.22;;
32533;SDS011;18973;48.580;8.912;2022-07-22T06:29:22;5.00;;;3.17;;
32533;SDS011;18973;48.580;8.912;2022-07-22T06:31:48;3.22;;;2.60;;
32533;SDS011;18973;48.580;8.912;2022-07-22T06:34:14;2.38;;;2.13;;
32533;SDS011;18973;48.580;8.912;2022-07-22T06:36:39;4.20;;;2.28;;
32533;SDS011;18973;48.580;8.912;2022-07-22T06:39:05;3.45;;;2.90;;
32533;SDS011;18973;48.580;8.912;2022-07-22T06:41:31;3.13;;;2.53;;
32533;SDS011;18973;48.580;8.912;2022-07-22T06:43:57;3.95;;;2.65;;
32533;SDS011;18973;48.580;8.912;2022-07-22T06:46:22;5.70;;;2.35;;
32533;SDS011;18973;48.580;8.912;2022-07-22T06:48:48;4.18;;;2.30;;
32533;SDS011;18973;48.580;8.912;2022-07-22T06:51:14;6.20;;;2.83;;
32533;SDS011;18973;48.580;8.912;2022-07-22T06:53:40;4.32;;;2.42;;
32533;SDS011;18973;48.580;8.912;2022-07-22T06:56:07;4.10;;;2.50;;
32533;SDS011;18973;48.580;8.912;2022-07-22T06:58:32;2.53;;;2.30;;
32533;SDS011;18973;48.580;8.912;2022-07-22T07:00:58;4.82;;;2.58;;
32533;SDS011;18973;48.580;8.912;2022-07-22T07:03:24;4.93;;;2.65;;
32533;SDS011;18973;48.580;8.912;2022-07-22T07:05:51;3.17;;;2.35;;
32533;SDS011;18973;48.580;8.912;2022-07-22T07:08:17;2.92;;;2.17;;
32533;SDS011;18973;48.580;8.912;2022-07-22T07:10:43;3.75;;;2.45;;
32533;SDS011;18973;48.580;8.912;2022-07-22T07:13:09;6.13;;;2.38;;
32533;SDS011;18973;48.580;8.912;2022-07-22T07:15:35;3.17;;;2.25;;
32533;SDS011;18973;48.580;8.912;2022-07-22T07:18:01;3.70;;;2.45;;
32533;SDS011;18973;48.580;8.912;2022-07-22T07:20:27;4.20;;;2.30;;
32533;SDS011;18973;48.580;8.912;2022-07-22T07:22:53;5.18;;;2.38;;
32533;SDS011;18973;48.580;8.912;2022-07-22T07:25:19;5.80;;;2.50;;
32533;SDS011;18973;48.580;8.912;2022-07-22T07:27:45;3.00;;;2.13;;
32533;SDS011;18973;48.580;8.912;2022-07-22T07:30:11;2.40;;;1.67;;
32533;SDS011;18973;48.580;8.912;2022-07-22T07:32:37;3.65;;;2.53;;
32533;SDS011;18973;48.580;8.912;2022-07-22T07:35:04;4.00;;;1.60;;
32533;SDS011;18973;48.580;8.912;2022-07-22T07:37:31;2.97;;;2.40;;
32533;SDS011;18973;48.580;8.912;2022-07-22T07:39:57;3.42;;;1.95;;
32533;SDS011;18973;48.580;8.912;2022-07-22T07:42:23;5.07;;;2.40;;
32533;SDS011;18973;48.580;8.912;2022-07-22T07:44:49;2.08;;;1.80;;
32533;SDS011;18973;48.580;8.912;2022-07-22T07:47:15;2.67;;;1.98;;
32533;SDS011;18973;48.580;8.912;2022-07-22T07:49:44;3.90;;;2.15;;
32533;SDS011;18973;48.580;8.912;2022-07-22T07:52:10;2.58;;;2.00;;
32533;SDS011;18973;48.580;8.912;2022-07-22T07:54:38;2.38;;;1.73;;
32533;SDS011;18973;48.580;8.912;2022-07-22T07:57:05;3.97;;;2.63;;
32533;SDS011;18973;48.580;8.912;2022-07-22T07:59:32;2.75;;;2.40;;
32533;SDS011;18973;48.580;8.912;2022-07-22T08:01:58;2.88;;;1.73;;
32533;SDS011;18973;48.580;8.912;2022-07-22T08:04:23;3.45;;;2.05;;
32533;SDS011;18973;48.580;8.912;2022-07-22T08:06:49;2.97;;;2.15;;
32533;SDS011;18973;48.580;8.912;2022-07-22T08:09:15;3.28;;;2.08;;
32533;SDS011;18973;48.580;8.912;2022-07-22T08:11:41;2.95;;;2.05;;
32533;SDS011;18973;48.580;8.912;2022-07-22T08:14:07;4.75;;;2.20;;
32533;SDS011;18973;48.580;8.912;2022-07-22T08:16:32;3.42;;;1.85;;
32533;SDS011;18973;48.580;8.912;2022-07-22T08:18:58;3.42;;;2.50;;
32533;SDS011;18973;48.580;8.912;2022-07-22T08:21:24;3.50;;;2.28;;
32533;SDS011;18973;48.580;8.912;2022-07-22T08:23:50;3.10;;;2.30;;
32533;SDS011;18973;48.580;8.912;2022-07-22T08:26:16;3.05;;;2.35;;
32533;SDS011;18973;48.580;8.912;2022-07-22T08:28:42;3.10;;;1.80;;
32533;SDS011;18973;48.580;8.912;2022-07-22T08:31:08;4.75;;;2.35;;
32533;SDS011;18973;48.580;8.912;2022-07-22T08:33:34;2.95;;;1.83;;
32533;SDS011;18973;48.580;8.912;2022-07-22T08:36:00;2.92;;;1.85;;
32533;SDS011;18973;48.580;8.912;2022-07-22T08:38:25;2.85;;;1.80;;
32533;SDS011;18973;48.580;8.912;2022-07-22T08:40:53;2.28;;;1.75;;
32533;SDS011;18973;48.580;8.912;2022-07-22T08:43:20;2.53;;;1.83;;
32533;SDS011;18973;48.580;8.912;2022-07-22T08:45:47;2.67;;;1.63;;
32533;SDS011;18973;48.580;8.912;2022-07-22T08:48:13;2.72;;;1.83;;
32533;SDS011;18973;48.580;8.912;2022-07-22T08:50:39;3.38;;;1.63;;
32533;SDS011;18973;48.580;8.912;2022-07-22T08:53:08;2.38;;;1.58;;
32533;SDS011;18973;48.580;8.912;2022-07-22T08:55:45;2.65;;;1.95;;
32533;SDS011;18973;48.580;8.912;2022-07-22T08:58:12;1.92;;;1.77;;
32533;SDS011;18973;48.580;8.912;2022-07-22T09:00:38;1.67;;;1.58;;
32533;SDS011;18973;48.580;8.912;2022-07-22T09:03:21;2.17;;;1.70;;
32533;SDS011;18973;48.580;8.912;2022-07-22T09:05:49;3.28;;;1.75;;
32533;SDS011;18973;48.580;8.912;2022-07-22T09:08:15;1.70;;;1.45;;
32533;SDS011;18973;48.580;8.912;2022-07-22T09:10:41;2.08;;;1.88;;
32533;SDS011;18973;48.580;8.912;2022-07-22T09:13:07;2.08;;;1.63;;
32533;SDS011;18973;48.580;8.912;2022-07-22T09:15:38;2.42;;;1.50;;
32533;SDS011;18973;48.580;8.912;2022-07-22T09:18:10;3.45;;;2.47;;
32533;SDS011;18973;48.580;8.912;2022-07-22T09:20:36;1.75;;;1.38;;
32533;SDS011;18973;48.580;8.912;2022-07-22T09:23:10;1.25;;;1.15;;
32533;SDS011;18973;48.580;8.912;2022-07-22T09:25:38;2.25;;;1.33;;
32533;SDS011;18973;48.580;8.912;2022-07-22T09:30:30;2.17;;;1.42;;
32533;SDS011;18973;48.580;8.912;2022-07-22T09:32:58;1.85;;;1.50;;
32533;SDS011;18973;48.580;8.912;2022-07-22T09:35:24;1.38;;;1.13;;
32533;SDS011;18973;48.580;8.912;2022-07-22T09:40:35;1.70;;;1.40;;
32533;SDS011;18973;48.580;8.912;2022-07-22T09:43:12;2.10;;;1.50;;
32533;SDS011;18973;48.580;8.912;2022-07-22T09:48:16;1.73;;;1.30;;
32533;SDS011;18973;48.580;8.912;2022-07-22T09:50:44;1.42;;;1.20;;
32533;SDS011;18973;48.580;8.912;2022-07-22T09:53:11;2.67;;;1.60;;
32533;SDS011;18973;48.580;8.912;2022-07-22T09:55:37;2.70;;;1.20;;
32533;SDS011;18973;48.580;8.912;2022-07-22T09:58:04;1.75;;;1.20;;
32533;SDS011;18973;48.580;8.912;2022-07-22T10:00:32;2.45;;;1.75;;
32533;SDS011;18973;48.580;8.912;2022-07-22T10:03:00;3.83;;;2.50;;
32533;SDS011;18973;48.580;8.912;2022-07-22T10:05:29;1.92;;;1.40;;
32533;SDS011;18973;48.580;8.912;2022-07-22T10:07:56;1.95;;;1.45;;
32533;SDS011;18973;48.580;8.912;2022-07-22T10:10:26;2.13;;;1.60;;
32533;SDS011;18973;48.580;8.912;2022-07-22T10:12:54;1.75;;;1.58;;
32533;SDS011;18973;48.580;8.912;2022-07-22T10:15:23;2.72;;;2.03;;
32533;SDS011;18973;48.580;8.912;2022-07-22T10:17:51;1.35;;;1.25;;
32533;SDS011;18973;48.580;8.912;2022-07-22T10:20:19;3.05;;;1.48;;
32533;SDS011;18973;48.580;8.912;2022-07-22T10:25:14;2.08;;;1.58;;
32533;SDS011;18973;48.580;8.912;2022-07-22T10:27:54;2.25;;;1.40;;
32533;SDS011;18973;48.580;8.912;2022-07-22T10:30:29;2.72;;;1.35;;
32533;SDS011;18973;48.580;8.912;2022-07-22T10:35:58;3.42;;;1.33;;
32533;SDS011;18973;48.580;8.912;2022-07-22T10:38:25;2.00;;;1.30;;
32533;SDS011;18973;48.580;8.912;2022-07-22T10:40:53;1.70;;;1.23;;
32533;SDS011;18973;48.580;8.912;2022-07-22T10:43:28;2.70;;;1.60;;
32533;SDS011;18973;48.580;8.912;2022-07-22T10:46:13;1.25;;;1.15;;
32533;SDS011;18973;48.580;8.912;2022-07-22T10:51:15;2.45;;;1.48;;
32533;SDS011;18973;48.580;8.912;2022-07-22T10:56:18;2.05;;;1.25;;
32533;SDS011;18973;48.580;8.912;2022-07-22T11:01:46;1.85;;;1.27;;
32533;SDS011;18973;48.580;8.912;2022-07-22T11:04:19;2.45;;;1.50;;
32533;SDS011;18973;48.580;8.912;2022-07-22T11:06:52;1.42;;;1.33;;
32533;SDS011;18973;48.580;8.912;2022-07-22T11:09:21;2.20;;;1.30;;
32533;SDS011;18973;48.580;8.912;2022-07-22T11:11:52;1.60;;;1.45;;
32533;SDS011;18973;48.580;8.912;2022-07-22T11:19:35;1.52;;;1.27;;
32533;SDS011;18973;48.580;8.912;2022-07-22T11:22:05;1.95;;;1.27;;
32533;SDS011;18973;48.580;8.912;2022-07-22T11:24:36;2.10;;;1.65;;
32533;SDS011;18973;48.580;8.912;2022-07-22T11:27:03;1.77;;;1.38;;
32533;SDS011;18973;48.580;8.912;2022-07-22T11:29:37;2.55;;;1.10;;
32533;SDS011;18973;48.580;8.912;2022-07-22T11:32:12;1.30;;;1.10;;
32533;SDS011;18973;48.580;8.912;2022-07-22T11:34:40;2.15;;;1.30;;
32533;SDS011;18973;48.580;8.912;2022-07-22T11:37:10;2.25;;;2.05;;
32533;SDS011;18973;48.580;8.912;2022-07-22T11:39:36;2.30;;;1.33;;
32533;SDS011;18973;48.580;8.912;2022-07-22T11:42:02;1.27;;;1.17;;
32533;SDS011;18973;48.580;8.912;2022-07-22T11:44:30;1.77;;;1.30;;
32533;SDS011;18973;48.580;8.912;2022-07-22T11:46:58;1.90;;;1.55;;
32533;SDS011;18973;48.580;8.912;2022-07-22T11:49:26;1.52;;;1.30;;
32533;SDS011;18973;48.580;8.912;2022-07-22T11:51:53;1.25;;;1.10;;
32533;SDS011;18973;48.580;8.912;2022-07-22T11:54:19;1.33;;;1.23;;
32533;SDS011;18973;48.580;8.912;2022-07-22T11:56:45;1.92;;;1.27;;
32533;SDS011;18973;48.580;8.912;2022-07-22T11:59:12;1.92;;;1.50;;
32533;SDS011;18973;48.580;8.912;2022-07-22T12:01:42;3.03;;;2.25;;
32533;SDS011;18973;48.580;8.912;2022-07-22T12:04:10;2.10;;;1.38;;
32533;SDS011;18973;48.580;8.912;2022-07-22T12:06:38;1.10;;;0.90;;
32533;SDS011;18973;48.580;8.912;2022-07-22T12:09:28;1.75;;;1.30;;
32533;SDS011;18973;48.580;8.912;2022-07-22T12:11:56;2.67;;;1.60;;
32533;SDS011;18973;48.580;8.912;2022-07-22T12:14:24;3.28;;;1.50;;
32533;SDS011;18973;48.580;8.912;2022-07-22T12:17:03;1.95;;;1.40;;
32533;SDS011;18973;48.580;8.912;2022-07-22T12:19:34;1.33;;;1.23;;
32533;SDS011;18973;48.580;8.912;2022-07-22T12:22:05;2.10;;;1.48;;
32533;SDS011;18973;48.580;8.912;2022-07-22T12:27:01;1.58;;;1.42;;
32533;SDS011;18973;48.580;8.912;2022-07-22T12:29:40;1.70;;;1.38;;
32533;SDS011;18973;48.580;8.912;2022-07-22T12:32:09;1.50;;;1.40;;
32533;SDS011;18973;48.580;8.912;2022-07-22T12:34:48;1.80;;;1.35;;
32533;SDS011;18973;48.580;8.912;2022-07-22T12:37:25;1.48;;;1.23;;
32533;SDS011;18973;48.580;8.912;2022-07-22T12:42:38;4.20;;;1.48;;
32533;SDS011;18973;48.580;8.912;2022-07-22T12:45:09;1.83;;;1.50;;
32533;SDS011;18973;48.580;8.912;2022-07-22T12:50:27;1.35;;;1.25;;
32533;SDS011;18973;48.580;8.912;2022-07-22T12:55:45;1.88;;;1.20;;
32533;SDS011;18973;48.580;8.912;2022-07-22T12:58:18;2.00;;;1.25;;
32533;SDS011;18973;48.580;8.912;2022-07-22T13:00:54;1.50;;;1.13;;
32533;SDS011;18973;48.580;8.912;2022-07-22T13:03:22;1.30;;;1.20;;
32533;SDS011;18973;48.580;8.912;2022-07-22T13:05:53;1.33;;;0.90;;
32533;SDS011;18973;48.580;8.912;2022-07-22T13:08:20;1.92;;;1.13;;
32533;SDS011;18973;48.580;8.912;2022-07-22T13:10:47;1.63;;;1.20;;
32533;SDS011;18973;48.580;8.912;2022-07-22T13:13:14;1.13;;;1.02;;
32533;SDS011;18973;48.580;8.912;2022-07-22T13:15:39;1.60;;;1.25;;
32533;SDS011;18973;48.580;8.912;2022-07-22T13:18:05;1.98;;;1.42;;
32533;SDS011;18973;48.580;8.912;2022-07-22T13:20:31;1.80;;;1.30;;
32533;SDS011;18973;48.580;8.912;2022-07-22T13:22:57;2.22;;;1.38;;
32533;SDS011;18973;48.580;8.912;2022-07-22T13:25:23;1.17;;;0.95;;
32533;SDS011;18973;48.580;8.912;2022-07-22T13:27:52;1.92;;;1.40;;
32533;SDS011;18973;48.580;8.912;2022-07-22T13:30:18;2.03;;;1.40;;
32533;SDS011;18973;48.580;8.912;2022-07-22T13:32:44;1.13;;;1.00;;
32533;SDS011;18973;48.580;8.912;2022-07-22T13:35:10;1.08;;;0.98;;
32533;SDS011;18973;48.580;8.912;2022-07-22T13:37:35;1.95;;;1.48;;
32533;SDS011;18973;48.580;8.912;2022-07-22T13:40:02;1.58;;;1.42;;
32533;SDS011;18973;48.580;8.912;2022-07-22T13:42:28;3.83;;;1.48;;
32533;SDS011;18973;48.580;8.912;2022-07-22T13:44:54;1.85;;;1.60;;
32533;SDS011;18973;48.580;8.912;2022-07-22T13:47:20;2.03;;;1.85;;
32533;SDS011;18973;48.580;8.912;2022-07-22T13:49:46;1.38;;;1.17;;
32533;SDS011;18973;48.580;8.912;2022-07-22T13:52:14;1.77;;;1.25;;
32533;SDS011;18973;48.580;8.912;2022-07-22T13:54:41;2.67;;;1.23;;
32533;SDS011;18973;48.580;8.912;2022-07-22T13:57:07;2.30;;;1.70;;
32533;SDS011;18973;48.580;8.912;2022-07-22T13:59:34;2.33;;;1.38;;
32533;SDS011;18973;48.580;8.912;2022-07-22T14:02:00;1.50;;;1.40;;
32533;SDS011;18973;48.580;8.912;2022-07-22T14:04:27;1.55;;;1.38;;
32533;SDS011;18973;48.580;8.912;2022-07-22T14:06:53;1.52;;;1.13;;
32533;SDS011;18973;48.580;8.912;2022-07-22T14:09:22;1.30;;;1.15;;
32533;SDS011;18973;48.580;8.912;2022-07-22T14:11:48;4.68;;;1.05;;
32533;SDS011;18973;48.580;8.912;2022-07-22T14:14:13;1.90;;;1.52;;
32533;SDS011;18973;48.580;8.912;2022-07-22T14:16:39;1.05;;;0.93;;
32533;SDS011;18973;48.580;8.912;2022-07-22T14:21:33;2.20;;;1.35;;
32533;SDS011;18973;48.580;8.912;2022-07-22T14:24:00;1.88;;;1.13;;
32533;SDS011;18973;48.580;8.912;2022-07-22T14:26:26;1.40;;;1.30;;
32533;SDS011;18973;48.580;8.912;2022-07-22T14:28:53;1.65;;;1.20;;
32533;SDS011;18973;48.580;8.912;2022-07-22T14:31:19;1.23;;;1.00;;
32533;SDS011;18973;48.580;8.912;2022-07-22T14:33:45;3.13;;;1.95;;
32533;SDS011;18973;48.580;8.912;2022-07-22T14:36:11;2.40;;;1.38;;
32533;SDS011;18973;48.580;8.912;2022-07-22T14:38:37;1.45;;;1.20;;
32533;SDS011;18973;48.580;8.912;2022-07-22T14:41:03;1.88;;;1.73;;
32533;SDS011;18973;48.580;8.912;2022-07-22T14:43:28;1.48;;;1.30;;
32533;SDS011;18973;48.580;8.912;2022-07-22T14:45:54;1.85;;;1.58;;
32533;SDS011;18973;48.580;8.912;2022-07-22T14:48:20;1.63;;;1.25;;
32533;SDS011;18973;48.580;8.912;2022-07-22T14:50:46;1.92;;;1.42;;
32533;SDS011;18973;48.580;8.912;2022-07-22T14:53:12;1.45;;;1.27;;
32533;SDS011;18973;48.580;8.912;2022-07-22T14:55:38;1.52;;;1.35;;
32533;SDS011;18973;48.580;8.912;2022-07-22T14:58:04;1.33;;;1.20;;
32533;SDS011;18973;48.580;8.912;2022-07-22T15:00:30;1.85;;;1.10;;
32533;SDS011;18973;48.580;8.912;2022-07-22T15:02:56;2.42;;;1.80;;
32533;SDS011;18973;48.580;8.912;2022-07-22T15:05:22;1.58;;;1.20;;
32533;SDS011;18973;48.580;8.912;2022-07-22T15:07:49;2.45;;;1.40;;
32533;SDS011;18973;48.580;8.912;2022-07-22T15:10:15;1.75;;;1.30;;
32533;SDS011;18973;48.580;8.912;2022-07-22T15:12:41;1.45;;;1.35;;
32533;SDS011;18973;48.580;8.912;2022-07-22T15:15:07;1.75;;;1.48;;
32533;SDS011;18973;48.580;8.912;2022-07-22T15:17:36;1.75;;;1.10;;
32533;SDS011;18973;48.580;8.912;2022-07-22T15:20:03;3.10;;;1.50;;
32533;SDS011;18973;48.580;8.912;2022-07-22T15:22:30;1.60;;;1.23;;
32533;SDS011;18973;48.580;8.912;2022-07-22T15:24:57;1.40;;;1.15;;